Time;durP1;ratioP1;P1;durP2;ratioP2;P2;SDS_P1;SDS_P2;PMS_P1;PMS_P2;Temp;Humidity;BMP_temperature;BMP_pressure;BME280_temperature;BME280_humidity;BME280_pressure;Samples;Min_cycle;Max_cycle;Signal;HPM_P1;HPM_P2
2022/10/25 00:00:17;;;;;;;2.70;1.17;;;;;;;;;;5122444;28;20203;-67
2022/10/25 00:02:43;;;;;;;1.17;0.98;;;;;;;;;;5122520;28;20205;-67
2022/10/25 00:05:13;;;;;;;2.38;1.15;;;;;;;;;;5122673;28;20538;-67
2022/10/25 00:07:39;;;;;;;3.33;1.65;;;;;;;;;;5122453;28;20217;-68
2022/10/25 00:10:06;;;;;;;3.60;1.52;;;;;;;;;;5122511;28;20210;-68
2022/10/25 00:12:32;;;;;;;6.70;1.80;;;;;;;;;;5122402;28;20198;-68
2022/10/25 00:15:00;;;;;;;2.28;1.75;;;;;;;;;;5122426;28;20420;-68
2022/10/25 00:17:27;;;;;;;6.32;1.80;;;;;;;;;;5122269;28;20195;-68
2022/10/25 00:19:53;;;;;;;2.25;1.80;;;;;;;;;;5122442;28;20195;-67
2022/10/25 00:22:20;;;;;;;9.23;1.67;;;;;;;;;;5122405;28;20494;-67
2022/10/25 00:24:47;;;;;;;2.40;1.95;;;;;;;;;;5122317;28;20201;-67
2022/10/25 00:27:13;;;;;;;3.58;1.75;;;;;;;;;;5121854;28;20549;-67
2022/10/25 00:29:40;;;;;;;3.92;2.03;;;;;;;;;;5121849;28;20201;-67
2022/10/25 00:32:06;;;;;;;3.97;2.05;;;;;;;;;;5122134;28;20199;-67
2022/10/25 00:34:32;;;;;;;2.33;2.13;;;;;;;;;;5122365;28;20203;-67
2022/10/25 00:36:58;;;;;;;2.22;2.10;;;;;;;;;;5126285;28;20195;-67
2022/10/25 00:39:26;;;;;;;2.30;2.13;;;;;;;;;;5126311;28;20362;-67
2022/10/25 00:41:52;;;;;;;3.63;1.90;;;;;;;;;;5126396;28;20201;-67
2022/10/25 00:44:37;;;;;;;3.72;1.63;;;;;;;;;;5126371;28;20198;-67
2022/10/25 00:47:06;;;;;;;2.42;2.00;;;;;;;;;;5126289;28;20538;-67
2022/10/25 00:49:32;;;;;;;4.57;2.08;;;;;;;;;;5126154;28;20221;-67
2022/10/25 00:52:00;;;;;;;3.53;2.10;;;;;;;;;;5126524;28;20202;-67
2022/10/25 00:54:30;;;;;;;2.05;1.95;;;;;;;;;;5126149;28;20371;-67
2022/10/25 00:56:58;;;;;;;2.00;1.90;;;;;;;;;;5125868;28;20187;-67
2022/10/25 00:59:25;;;;;;;2.38;2.00;;;;;;;;;;5126302;28;20495;-67
2022/10/25 01:01:51;;;;;;;2.50;2.35;;;;;;;;;;5125906;28;20195;-67
2022/10/25 01:04:18;;;;;;;3.35;2.60;;;;;;;;;;5126074;27;20195;-67
2022/10/25 01:06:47;;;;;;;6.22;2.22;;;;;;;;;;5125718;28;20234;-67
2022/10/25 01:09:15;;;;;;;6.30;2.67;;;;;;;;;;5125731;28;20201;-67
2022/10/25 01:11:43;;;;;;;3.70;2.70;;;;;;;;;;5125688;28;20503;-67
2022/10/25 01:14:10;;;;;;;7.75;2.75;;;;;;;;;;5125556;28;20191;-67
2022/10/25 01:16:41;;;;;;;2.80;2.58;;;;;;;;;;5125617;27;20206;-67
2022/10/25 01:19:15;;;;;;;4.07;2.28;;;;;;;;;;5125584;28;20509;-67
2022/10/25 01:21:46;;;;;;;6.55;2.20;;;;;;;;;;5125581;27;20393;-67
2022/10/25 01:24:31;;;;;;;3.20;2.05;;;;;;;;;;5125370;28;20525;-67
2022/10/25 01:27:10;;;;;;;6.15;2.10;;;;;;;;;;5125612;28;20525;-67
2022/10/25 01:29:52;;;;;;;5.15;1.90;;;;;;;;;;5125300;28;20210;-67
2022/10/25 01:32:23;;;;;;;6.95;2.42;;;;;;;;;;5125723;28;20195;-67
2022/10/25 01:34:52;;;;;;;2.30;1.70;;;;;;;;;;5125278;28;20195;-67
2022/10/25 01:37:23;;;;;;;2.92;1.77;;;;;;;;;;5125168;28;20190;-67
2022/10/25 01:39:54;;;;;;;6.80;1.52;;;;;;;;;;5123848;28;20202;-67
2022/10/25 01:42:23;;;;;;;8.13;1.80;;;;;;;;;;5124064;28;20199;-67
2022/10/25 01:44:55;;;;;;;2.28;2.17;;;;;;;;;;5123900;28;20423;-67
2022/10/25 01:47:24;;;;;;;4.65;1.60;;;;;;;;;;5123687;28;20235;-67
2022/10/25 01:49:54;;;;;;;3.75;2.20;;;;;;;;;;5123730;28;20494;-67
2022/10/25 01:52:21;;;;;;;4.00;1.80;;;;;;;;;;5123180;28;20199;-67
2022/10/25 01:54:47;;;;;;;3.42;1.90;;;;;;;;;;5123620;28;20266;-67
2022/10/25 01:57:20;;;;;;;2.13;1.98;;;;;;;;;;5123836;28;20191;-67
2022/10/25 02:00:01;;;;;;;5.55;3.05;;;;;;;;;;5123852;28;20388;-67
2022/10/25 02:02:32;;;;;;;3.45;2.58;;;;;;;;;;5124132;28;20195;-67
2022/10/25 02:05:03;;;;;;;6.63;2.60;;;;;;;;;;5124145;28;20607;-67
2022/10/25 02:07:34;;;;;;;2.60;2.40;;;;;;;;;;5123403;28;20459;-67
2022/10/25 02:10:02;;;;;;;5.75;2.22;;;;;;;;;;5123432;28;20199;-67
2022/10/25 02:12:30;;;;;;;2.50;2.40;;;;;;;;;;5123587;28;20272;-67
2022/10/25 02:15:04;;;;;;;2.78;1.90;;;;;;;;;;5123531;28;20224;-67
2022/10/25 02:17:33;;;;;;;4.88;2.45;;;;;;;;;;5123491;28;20388;-67
2022/10/25 02:20:00;;;;;;;4.43;1.90;;;;;;;;;;5123203;28;20506;-67
2022/10/25 02:22:29;;;;;;;5.53;2.08;;;;;;;;;;5123602;28;20387;-67
2022/10/25 02:24:56;;;;;;;2.50;2.40;;;;;;;;;;5123334;28;20202;-67
2022/10/25 02:27:23;;;;;;;5.75;2.33;;;;;;;;;;5123191;28;20541;-67
2022/10/25 02:29:49;;;;;;;2.47;2.30;;;;;;;;;;5123050;28;20199;-67
2022/10/25 02:32:16;;;;;;;5.05;2.13;;;;;;;;;;5123354;28;20194;-67
2022/10/25 02:34:47;;;;;;;5.13;2.20;;;;;;;;;;5123379;28;20199;-67
2022/10/25 02:37:13;;;;;;;3.00;2.20;;;;;;;;;;5086909;28;1039103;-67
2022/10/25 02:39:39;;;;;;;5.10;1.95;;;;;;;;;;5124097;28;20207;-67
2022/10/25 02:42:06;;;;;;;2.08;1.90;;;;;;;;;;5123996;28;20195;-67
2022/10/25 02:44:32;;;;;;;6.60;2.05;;;;;;;;;;5123970;28;20502;-67
2022/10/25 02:46:58;;;;;;;3.10;2.00;;;;;;;;;;5123765;28;20215;-68
2022/10/25 02:49:24;;;;;;;3.65;1.73;;;;;;;;;;5123806;28;20222;-67
2022/10/25 02:51:52;;;;;;;4.05;1.98;;;;;;;;;;5123954;28;20210;-68
2022/10/25 02:54:18;;;;;;;5.45;1.77;;;;;;;;;;5123910;28;20379;-67
2022/10/25 02:56:45;;;;;;;1.98;1.83;;;;;;;;;;5123756;28;20191;-67
2022/10/25 02:59:11;;;;;;;1.80;1.70;;;;;;;;;;5122625;28;20202;-67
2022/10/25 03:01:38;;;;;;;2.30;1.95;;;;;;;;;;5123487;28;20199;-67
2022/10/25 03:04:04;;;;;;;5.03;1.65;;;;;;;;;;5123412;28;20195;-68
2022/10/25 03:06:30;;;;;;;3.38;2.30;;;;;;;;;;5123614;28;20239;-68
2022/10/25 03:08:58;;;;;;;4.28;2.53;;;;;;;;;;5123339;28;20194;-67
2022/10/25 03:11:24;;;;;;;3.08;2.20;;;;;;;;;;5123537;28;20347;-67
2022/10/25 03:13:50;;;;;;;3.72;2.58;;;;;;;;;;5123232;28;20195;-67
2022/10/25 03:16:17;;;;;;;2.30;2.10;;;;;;;;;;5123200;28;20191;-67
2022/10/25 03:18:43;;;;;;;5.85;2.80;;;;;;;;;;5123198;28;20420;-67
2022/10/25 03:21:09;;;;;;;6.93;3.05;;;;;;;;;;5123370;28;20203;-67
2022/10/25 03:23:35;;;;;;;4.20;2.72;;;;;;;;;;5123010;28;20191;-67
2022/10/25 03:26:03;;;;;;;3.88;2.70;;;;;;;;;;5123370;28;20203;-67
2022/10/25 03:28:30;;;;;;;6.82;3.20;;;;;;;;;;5123000;28;20220;-67
2022/10/25 03:30:57;;;;;;;5.28;2.90;;;;;;;;;;5123340;28;20209;-68
2022/10/25 03:33:24;;;;;;;3.05;2.47;;;;;;;;;;5123107;28;20202;-67
2022/10/25 03:35:50;;;;;;;4.45;2.40;;;;;;;;;;5123157;28;20202;-67
2022/10/25 03:38:17;;;;;;;4.75;2.80;;;;;;;;;;5122573;28;20208;-67
2022/10/25 03:40:43;;;;;;;6.30;2.60;;;;;;;;;;5122988;28;20195;-67
2022/10/25 03:43:11;;;;;;;7.07;2.58;;;;;;;;;;5122918;28;20195;-67
2022/10/25 03:45:37;;;;;;;4.80;2.97;;;;;;;;;;5123365;28;20340;-67
2022/10/25 03:48:04;;;;;;;8.40;3.13;;;;;;;;;;5122619;28;20222;-67
2022/10/25 03:50:30;;;;;;;9.50;2.50;;;;;;;;;;5122745;28;20286;-67
2022/10/25 03:52:56;;;;;;;3.50;2.70;;;;;;;;;;5122756;28;20195;-67
2022/10/25 03:55:23;;;;;;;7.30;2.63;;;;;;;;;;5122540;28;20207;-68
2022/10/25 03:57:49;;;;;;;6.10;2.70;;;;;;;;;;5122504;28;20201;-68
2022/10/25 04:00:17;;;;;;;3.00;2.72;;;;;;;;;;5122734;27;20195;-68
2022/10/25 04:02:43;;;;;;;2.75;2.55;;;;;;;;;;5122777;28;20203;-68
2022/10/25 04:05:09;;;;;;;5.10;2.78;;;;;;;;;;5122662;28;20195;-67
2022/10/25 04:07:36;;;;;;;5.45;2.97;;;;;;;;;;5122678;28;20217;-67
2022/10/25 04:10:02;;;;;;;7.43;3.20;;;;;;;;;;5122309;28;20222;-67
2022/10/25 04:12:28;;;;;;;2.95;2.75;;;;;;;;;;5122897;28;20209;-67
2022/10/25 04:14:54;;;;;;;5.20;2.55;;;;;;;;;;5122525;28;20195;-67
2022/10/25 04:17:22;;;;;;;5.40;2.65;;;;;;;;;;5122405;28;20206;-68
2022/10/25 04:19:48;;;;;;;3.25;2.45;;;;;;;;;;5122293;28;20195;-67
2022/10/25 04:22:14;;;;;;;8.77;2.80;;;;;;;;;;5122315;28;20507;-67
2022/10/25 04:24:41;;;;;;;4.72;2.90;;;;;;;;;;5122210;28;20257;-67
2022/10/25 04:27:07;;;;;;;4.82;2.80;;;;;;;;;;5122106;28;20215;-67
2022/10/25 04:29:33;;;;;;;3.45;2.75;;;;;;;;;;5122287;28;20202;-67
2022/10/25 04:32:00;;;;;;;3.90;2.75;;;;;;;;;;5122544;28;20195;-68
2022/10/25 04:34:27;;;;;;;4.93;2.80;;;;;;;;;;5122410;28;20577;-68
2022/10/25 04:36:54;;;;;;;5.28;3.25;;;;;;;;;;5122165;28;20206;-68
2022/10/25 04:39:20;;;;;;;5.40;2.60;;;;;;;;;;5121841;28;20203;-68
2022/10/25 04:41:46;;;;;;;5.20;3.13;;;;;;;;;;5122412;28;20376;-68
2022/10/25 04:44:12;;;;;;;2.92;2.67;;;;;;;;;;5122313;28;20252;-68
2022/10/25 04:46:39;;;;;;;5.10;2.97;;;;;;;;;;5122143;28;20400;-68
2022/10/25 04:49:05;;;;;;;4.72;3.35;;;;;;;;;;5122318;28;20199;-68
2022/10/25 04:51:33;;;;;;;9.13;3.40;;;;;;;;;;5122019;28;20199;-68
2022/10/25 04:53:59;;;;;;;4.95;2.83;;;;;;;;;;5122392;28;20199;-68
2022/10/25 04:56:28;;;;;;;3.33;3.03;;;;;;;;;;5122227;28;20195;-68
2022/10/25 04:58:54;;;;;;;3.85;2.63;;;;;;;;;;5121897;28;20218;-68
2022/10/25 05:01:20;;;;;;;4.05;2.85;;;;;;;;;;5122268;28;20210;-68
2022/10/25 05:03:47;;;;;;;3.40;2.75;;;;;;;;;;5121904;28;20199;-68
2022/10/25 05:06:15;;;;;;;8.68;2.78;;;;;;;;;;5121917;28;20195;-67
2022/10/25 05:08:44;;;;;;;3.30;2.83;;;;;;;;;;5121831;28;20233;-67
2022/10/25 05:11:10;;;;;;;4.47;3.00;;;;;;;;;;5122008;28;20202;-67
2022/10/25 05:13:37;;;;;;;5.50;2.67;;;;;;;;;;5122224;28;20241;-67
2022/10/25 05:16:04;;;;;;;7.50;2.30;;;;;;;;;;5121999;28;20195;-67
2022/10/25 05:18:31;;;;;;;3.35;2.50;;;;;;;;;;5121610;28;20416;-67
2022/10/25 05:20:58;;;;;;;4.00;2.90;;;;;;;;;;5122428;28;20202;-67
2022/10/25 05:23:24;;;;;;;4.72;2.60;;;;;;;;;;5125808;28;20221;-67
2022/10/25 05:26:00;;;;;;;7.57;3.17;;;;;;;;;;5125561;28;20212;-68
2022/10/25 05:28:27;;;;;;;9.02;3.42;;;;;;;;;;5125079;28;20242;-67
2022/10/25 05:30:53;;;;;;;6.28;3.30;;;;;;;;;;5125145;28;20195;-67
2022/10/25 05:33:19;;;;;;;10.32;3.25;;;;;;;;;;5125568;28;20199;-67
2022/10/25 05:35:45;;;;;;;4.88;2.85;;;;;;;;;;5124912;27;20202;-67
2022/10/25 05:38:12;;;;;;;4.85;2.75;;;;;;;;;;5124912;28;20198;-70
2022/10/25 05:40:38;;;;;;;5.53;2.72;;;;;;;;;;5125462;28;20379;-70
2022/10/25 05:43:06;;;;;;;7.75;3.30;;;;;;;;;;5125197;28;20201;-70
2022/10/25 05:45:32;;;;;;;3.25;2.95;;;;;;;;;;5124985;28;20214;-70
2022/10/25 05:47:58;;;;;;;6.25;3.20;;;;;;;;;;5124638;28;20393;-70
2022/10/25 05:50:24;;;;;;;6.07;3.47;;;;;;;;;;5124920;28;20211;-70
2022/10/25 05:52:52;;;;;;;4.97;3.13;;;;;;;;;;5125050;28;20201;-70
2022/10/25 05:55:18;;;;;;;6.05;3.28;;;;;;;;;;5124884;28;20435;-71
2022/10/25 05:57:49;;;;;;;6.35;3.45;;;;;;;;;;5124612;28;20198;-71
2022/10/25 06:00:17;;;;;;;4.55;3.33;;;;;;;;;;5124877;28;20195;-71
2022/10/25 06:02:43;;;;;;;7.05;3.95;;;;;;;;;;5124597;28;20191;-70
2022/10/25 06:05:10;;;;;;;6.85;3.30;;;;;;;;;;5124813;28;20247;-70
2022/10/25 06:07:36;;;;;;;7.50;3.20;;;;;;;;;;5124353;28;20226;-70
2022/10/25 06:10:02;;;;;;;5.20;3.40;;;;;;;;;;5124786;28;20199;-72
2022/10/25 06:12:29;;;;;;;5.82;3.90;;;;;;;;;;5124608;28;20188;-71
2022/10/25 06:14:55;;;;;;;4.82;3.47;;;;;;;;;;5124618;28;20502;-71
2022/10/25 06:17:23;;;;;;;9.73;3.88;;;;;;;;;;5124515;28;20367;-71
2022/10/25 06:19:49;;;;;;;8.52;4.07;;;;;;;;;;5124456;28;20213;-71
2022/10/25 06:22:15;;;;;;;4.97;3.08;;;;;;;;;;5124844;28;20199;-59
2022/10/25 06:24:41;;;;;;;12.55;3.67;;;;;;;;;;5124297;27;20205;-60
2022/10/25 06:27:08;;;;;;;6.75;4.03;;;;;;;;;;5114734;28;20223;-59
2022/10/25 06:29:34;;;;;;;7.25;4.35;;;;;;;;;;5116837;28;20207;-59
2022/10/25 06:32:00;;;;;;;5.68;4.30;;;;;;;;;;5117018;28;20215;-59
2022/10/25 06:34:28;;;;;;;10.40;4.25;;;;;;;;;;5117910;28;20207;-59
2022/10/25 06:36:54;;;;;;;6.80;3.97;;;;;;;;;;5117499;28;20210;-59
2022/10/25 06:39:20;;;;;;;8.15;4.45;;;;;;;;;;5112783;28;20514;-59
2022/10/25 06:41:47;;;;;;;4.40;3.97;;;;;;;;;;5113350;28;20210;-58
2022/10/25 06:44:13;;;;;;;7.60;4.43;;;;;;;;;;5116460;28;20207;-59
2022/10/25 06:46:39;;;;;;;10.52;5.40;;;;;;;;;;5117433;28;20292;-59
2022/10/25 06:49:06;;;;;;;11.30;4.53;;;;;;;;;;5116184;28;20235;-59
2022/10/25 06:51:33;;;;;;;7.30;4.60;;;;;;;;;;5116039;28;20537;-58
2022/10/25 06:54:00;;;;;;;11.57;5.10;;;;;;;;;;5116896;28;20214;-58
2022/10/25 06:56:27;;;;;;;9.75;5.20;;;;;;;;;;5116465;28;20504;-59
2022/10/25 06:58:53;;;;;;;8.55;4.97;;;;;;;;;;5115774;28;20210;-59
2022/10/25 07:01:20;;;;;;;8.68;6.18;;;;;;;;;;5116249;28;20211;-59
2022/10/25 07:03:49;;;;;;;12.95;6.00;;;;;;;;;;5115967;28;20214;-59
2022/10/25 07:06:16;;;;;;;12.02;6.57;;;;;;;;;;5116950;28;20218;-59
2022/10/25 07:08:44;;;;;;;13.10;8.50;;;;;;;;;;5115519;28;20404;-59
2022/10/25 07:11:12;;;;;;;11.98;9.25;;;;;;;;;;5114678;28;20215;-59
2022/10/25 07:13:38;;;;;;;11.95;8.00;;;;;;;;;;5115633;28;20211;-58
2022/10/25 07:16:05;;;;;;;14.40;7.80;;;;;;;;;;5115761;28;20206;-57
2022/10/25 07:18:31;;;;;;;13.45;7.60;;;;;;;;;;5115282;28;20207;-59
2022/10/25 07:20:58;;;;;;;8.57;7.20;;;;;;;;;;5116761;28;20522;-59
2022/10/25 07:23:24;;;;;;;13.88;7.38;;;;;;;;;;5116163;28;20543;-58
2022/10/25 07:25:52;;;;;;;13.35;8.05;;;;;;;;;;5115974;27;20215;-58
2022/10/25 07:28:18;;;;;;;12.68;7.03;;;;;;;;;;5114963;28;20235;-58
2022/10/25 07:30:46;;;;;;;9.07;6.45;;;;;;;;;;5114805;28;20229;-60
2022/10/25 07:33:12;;;;;;;6.20;5.60;;;;;;;;;;5115610;28;20252;-59
2022/10/25 07:35:38;;;;;;;12.00;6.07;;;;;;;;;;5115613;28;20517;-59
2022/10/25 07:38:04;;;;;;;9.73;6.18;;;;;;;;;;5114931;28;20238;-58
2022/10/25 07:40:31;;;;;;;7.70;5.63;;;;;;;;;;5115217;28;20400;-59
2022/10/25 07:42:58;;;;;;;8.68;6.90;;;;;;;;;;5109859;28;20214;-58
2022/10/25 07:45:25;;;;;;;11.98;6.95;;;;;;;;;;5114516;28;20215;-59
2022/10/25 07:47:51;;;;;;;11.63;6.78;;;;;;;;;;5113972;28;20537;-57
2022/10/25 07:50:19;;;;;;;10.63;7.10;;;;;;;;;;5115007;28;20234;-59
2022/10/25 07:52:45;;;;;;;14.57;7.72;;;;;;;;;;5114308;28;20211;-59
2022/10/25 07:55:12;;;;;;;12.70;7.55;;;;;;;;;;5114972;28;20211;-59
2022/10/25 07:57:38;;;;;;;10.43;7.35;;;;;;;;;;5113955;28;20210;-58
2022/10/25 08:00:07;;;;;;;17.90;9.73;;;;;;;;;;5114958;28;20211;-59
2022/10/25 08:02:33;;;;;;;17.83;9.15;;;;;;;;;;5115080;28;20217;-59
2022/10/25 08:05:00;;;;;;;14.80;9.07;;;;;;;;;;5115220;28;20248;-59
2022/10/25 08:07:26;;;;;;;14.57;9.07;;;;;;;;;;5114886;28;20290;-59
2022/10/25 08:09:53;;;;;;;15.93;8.60;;;;;;;;;;5113761;28;20207;-59
2022/10/25 08:12:19;;;;;;;18.20;7.60;;;;;;;;;;5115027;28;20211;-60
2022/10/25 08:14:45;;;;;;;17.02;7.10;;;;;;;;;;5115432;28;20335;-59
2022/10/25 08:17:14;;;;;;;5.75;4.85;;;;;;;;;;5115235;28;20218;-59
2022/10/25 08:19:42;;;;;;;8.10;4.45;;;;;;;;;;5113964;28;20210;-59
2022/10/25 08:22:08;;;;;;;6.20;3.15;;;;;;;;;;5114149;28;20207;-58
2022/10/25 08:24:34;;;;;;;5.35;2.95;;;;;;;;;;5114505;28;20545;-57
2022/10/25 08:27:01;;;;;;;12.85;2.85;;;;;;;;;;5114036;28;20421;-58
2022/10/25 08:29:27;;;;;;;3.80;2.50;;;;;;;;;;5113640;28;20239;-58
2022/10/25 08:31:53;;;;;;;3.78;2.60;;;;;;;;;;5114690;28;20440;-59
2022/10/25 08:34:21;;;;;;;2.75;2.55;;;;;;;;;;5113894;28;20207;-59
2022/10/25 08:36:48;;;;;;;2.72;2.58;;;;;;;;;;5114185;28;20219;-59
2022/10/25 08:39:16;;;;;;;4.45;2.80;;;;;;;;;;5112863;28;20211;-59
2022/10/25 08:41:45;;;;;;;4.50;3.45;;;;;;;;;;5114716;28;20218;-59
2022/10/25 08:44:14;;;;;;;7.07;3.10;;;;;;;;;;5114832;28;20207;-59
2022/10/25 08:46:42;;;;;;;4.85;2.53;;;;;;;;;;5113795;28;20560;-59
2022/10/25 08:49:16;;;;;;;4.03;2.45;;;;;;;;;;5109416;28;20226;-58
2022/10/25 08:51:45;;;;;;;2.60;2.22;;;;;;;;;;5114019;28;20259;-59
2022/10/25 08:54:18;;;;;;;6.25;2.30;;;;;;;;;;5114379;28;20213;-59
2022/10/25 08:56:45;;;;;;;5.40;2.58;;;;;;;;;;5115969;28;20218;-58
2022/10/25 08:59:15;;;;;;;7.85;2.53;;;;;;;;;;5117680;28;20215;-59
2022/10/25 09:01:44;;;;;;;3.70;2.67;;;;;;;;;;5118432;28;20214;-60
2022/10/25 09:04:11;;;;;;;5.90;2.60;;;;;;;;;;5119738;28;20207;-60
2022/10/25 09:06:39;;;;;;;4.72;2.40;;;;;;;;;;5118849;28;20522;-60
2022/10/25 09:09:15;;;;;;;4.40;2.65;;;;;;;;;;5118710;27;20230;-60
2022/10/25 09:11:47;;;;;;;3.83;2.70;;;;;;;;;;5119729;28;20513;-60
2022/10/25 09:14:17;;;;;;;6.82;2.30;;;;;;;;;;5118918;28;20210;-60
2022/10/25 09:16:49;;;;;;;3.55;2.50;;;;;;;;;;5118594;28;20541;-58
2022/10/25 09:19:17;;;;;;;5.13;2.33;;;;;;;;;;5113414;28;20210;-58
2022/10/25 09:21:46;;;;;;;3.65;2.05;;;;;;;;;;5117994;28;20210;-59
2022/10/25 09:24:19;;;;;;;2.78;2.40;;;;;;;;;;5117774;27;20529;-59
2022/10/25 09:26:48;;;;;;;4.82;2.10;;;;;;;;;;5117680;28;20218;-58
2022/10/25 09:29:23;;;;;;;2.53;2.00;;;;;;;;;;5117244;28;20238;-59
2022/10/25 09:31:51;;;;;;;3.70;2.20;;;;;;;;;;5117273;28;20233;-59
2022/10/25 09:34:19;;;;;;;6.75;2.08;;;;;;;;;;5117473;28;20215;-59
2022/10/25 09:36:46;;;;;;;8.25;2.00;;;;;;;;;;5117737;28;20210;-57
2022/10/25 09:39:19;;;;;;;4.60;1.83;;;;;;;;;;5116970;28;20529;-60
2022/10/25 09:41:46;;;;;;;4.65;2.33;;;;;;;;;;5117618;28;20211;-57
2022/10/25 09:44:17;;;;;;;6.75;2.00;;;;;;;;;;5117478;28;20215;-59
2022/10/25 09:46:46;;;;;;;3.28;2.08;;;;;;;;;;5117000;27;20203;-59
2022/10/25 09:49:19;;;;;;;4.88;1.75;;;;;;;;;;5117157;28;20234;-59
2022/10/25 09:51:52;;;;;;;4.63;2.13;;;;;;;;;;5117726;28;20215;-60
2022/10/25 09:54:26;;;;;;;3.65;1.88;;;;;;;;;;5118659;28;20271;-59
2022/10/25 09:56:53;;;;;;;6.10;2.30;;;;;;;;;;5117534;27;20282;-59
2022/10/25 09:59:19;;;;;;;5.00;1.65;;;;;;;;;;5117869;28;20437;-60
2022/10/25 10:01:45;;;;;;;2.05;1.77;;;;;;;;;;5118167;28;20211;-60
2022/10/25 10:04:25;;;;;;;6.38;2.03;;;;;;;;;;5118166;28;20206;-59
2022/10/25 10:06:53;;;;;;;4.07;1.75;;;;;;;;;;5117136;28;20426;-59
2022/10/25 10:09:22;;;;;;;3.05;1.88;;;;;;;;;;5115922;27;20237;-59
2022/10/25 10:11:52;;;;;;;8.57;2.20;;;;;;;;;;5116672;28;20252;-59
2022/10/25 10:14:22;;;;;;;6.28;1.95;;;;;;;;;;5115973;28;20499;-58
2022/10/25 10:16:49;;;;;;;3.33;1.33;;;;;;;;;;5116500;28;20242;-58
2022/10/25 10:19:18;;;;;;;5.10;1.73;;;;;;;;;;5115744;28;20712;-57
2022/10/25 10:21:44;;;;;;;4.72;1.83;;;;;;;;;;5116448;28;20598;-58
2022/10/25 10:24:15;;;;;;;4.68;1.88;;;;;;;;;;5116770;27;20286;-59
2022/10/25 10:26:45;;;;;;;5.65;2.00;;;;;;;;;;5116530;27;20215;-59
2022/10/25 10:29:13;;;;;;;5.53;1.48;;;;;;;;;;5115491;28;20227;-58
2022/10/25 10:31:41;;;;;;;3.53;1.48;;;;;;;;;;5116479;28;20210;-59
2022/10/25 10:34:20;;;;;;;4.22;1.40;;;;;;;;;;5116682;28;20218;-59
2022/10/25 10:36:48;;;;;;;2.83;1.58;;;;;;;;;;5116295;28;20541;-59
2022/10/25 10:39:21;;;;;;;3.90;1.40;;;;;;;;;;5116008;28;20518;-59
2022/10/25 10:41:59;;;;;;;5.90;1.23;;;;;;;;;;5116019;28;20276;-59
2022/10/25 10:44:26;;;;;;;3.35;1.60;;;;;;;;;;5116537;28;20410;-58
2022/10/25 10:46:53;;;;;;;3.95;1.15;;;;;;;;;;5116415;28;20207;-59
2022/10/25 10:49:20;;;;;;;2.55;0.90;;;;;;;;;;5115774;28;20522;-59
2022/10/25 10:51:47;;;;;;;3.35;1.00;;;;;;;;;;5115468;28;20493;-59
2022/10/25 10:54:14;;;;;;;3.15;1.05;;;;;;;;;;5115958;28;20211;-59
2022/10/25 10:56:40;;;;;;;7.10;1.15;;;;;;;;;;5115809;28;20215;-60
2022/10/25 10:59:23;;;;;;;1.88;0.90;;;;;;;;;;5115204;28;20402;-59
2022/10/25 11:01:49;;;;;;;5.00;1.13;;;;;;;;;;5115476;27;20517;-60
2022/10/25 11:04:16;;;;;;;5.50;1.10;;;;;;;;;;5116717;28;20417;-59
2022/10/25 11:06:43;;;;;;;2.30;1.10;;;;;;;;;;5115787;28;20211;-60
2022/10/25 11:09:15;;;;;;;2.20;0.80;;;;;;;;;;5115340;27;20227;-59
2022/10/25 11:11:42;;;;;;;3.78;0.75;;;;;;;;;;5115803;28;20628;-59
2022/10/25 11:14:12;;;;;;;2.65;0.80;;;;;;;;;;5115437;28;20234;-59
2022/10/25 11:16:45;;;;;;;2.03;1.10;;;;;;;;;;5115759;28;20211;-59
2022/10/25 11:19:29;;;;;;;4.25;0.93;;;;;;;;;;5114209;27;20576;-59
2022/10/25 11:22:01;;;;;;;3.75;0.80;;;;;;;;;;5105219;28;20207;-59
2022/10/25 11:24:32;;;;;;;1.67;1.00;;;;;;;;;;5115669;28;20244;-58
2022/10/25 11:27:06;;;;;;;4.25;0.88;;;;;;;;;;5115128;28;20218;-59
2022/10/25 11:29:45;;;;;;;2.25;0.95;;;;;;;;;;5114857;28;20295;-59
2022/10/25 11:32:22;;;;;;;2.78;0.80;;;;;;;;;;5115800;28;20218;-60
2022/10/25 11:34:52;;;;;;;4.13;1.30;;;;;;;;;;5116212;28;20529;-60
2022/10/25 11:37:20;;;;;;;3.72;1.00;;;;;;;;;;5116367;28;20206;-58
2022/10/25 11:39:53;;;;;;;3.85;0.80;;;;;;;;;;5116710;28;20245;-59
2022/10/25 11:42:25;;;;;;;1.67;0.60;;;;;;;;;;5115451;28;20533;-59
2022/10/25 11:45:12;;;;;;;4.10;1.00;;;;;;;;;;5115763;28;20256;-60
2022/10/25 11:47:43;;;;;;;3.22;0.70;;;;;;;;;;5109976;28;20214;-59
2022/10/25 11:50:19;;;;;;;1.75;0.68;;;;;;;;;;5115927;28;20549;-59
2022/10/25 11:52:51;;;;;;;2.05;0.70;;;;;;;;;;5116290;28;20404;-59
2022/10/25 11:55:22;;;;;;;1.20;0.90;;;;;;;;;;5116469;28;20317;-59
2022/10/25 11:57:55;;;;;;;3.90;0.90;;;;;;;;;;5114994;28;20210;-59
2022/10/25 12:00:22;;;;;;;4.38;0.90;;;;;;;;;;5106063;28;20214;-60
2022/10/25 12:03:02;;;;;;;5.60;1.00;;;;;;;;;;5116133;28;20617;-60
2022/10/25 12:05:29;;;;;;;2.03;0.60;;;;;;;;;;5115711;28;20230;-58
2022/10/25 12:07:59;;;;;;;5.50;0.90;;;;;;;;;;5114946;28;20214;-59
2022/10/25 12:10:28;;;;;;;1.25;0.63;;;;;;;;;;5114999;28;20227;-59
2022/10/25 12:12:56;;;;;;;2.38;0.90;;;;;;;;;;5115014;28;20214;-60
2022/10/25 12:15:24;;;;;;;5.63;0.85;;;;;;;;;;5115440;28;20217;-60
2022/10/25 12:17:50;;;;;;;1.02;0.63;;;;;;;;;;5114114;28;20582;-60
2022/10/25 12:20:21;;;;;;;1.58;0.60;;;;;;;;;;5114350;28;20225;-60
2022/10/25 12:22:49;;;;;;;4.78;0.85;;;;;;;;;;5114624;27;20207;-60
2022/10/25 12:25:19;;;;;;;1.63;0.65;;;;;;;;;;5114308;28;20217;-60
2022/10/25 12:27:47;;;;;;;7.28;0.90;;;;;;;;;;5113707;28;20230;-60
2022/10/25 12:30:14;;;;;;;4.10;1.08;;;;;;;;;;5115648;28;20275;-60
2022/10/25 12:32:42;;;;;;;2.42;0.82;;;;;;;;;;5117285;28;20213;-60
2022/10/25 12:35:17;;;;;;;1.55;0.50;;;;;;;;;;5119155;28;20214;-60
2022/10/25 12:37:48;;;;;;;4.53;0.60;;;;;;;;;;5117984;28;20533;-59
2022/10/25 12:40:16;;;;;;;1.45;0.57;;;;;;;;;;5113839;28;20199;-59
2022/10/25 12:42:44;;;;;;;1.48;0.50;;;;;;;;;;5114991;28;20218;-59
2022/10/25 12:45:21;;;;;;;1.08;0.73;;;;;;;;;;5119045;28;20206;-60
2022/10/25 12:47:55;;;;;;;1.27;0.50;;;;;;;;;;5113927;28;20284;-60
2022/10/25 12:50:37;;;;;;;1.05;0.50;;;;;;;;;;5118620;28;20553;-60
2022/10/25 12:53:19;;;;;;;2.03;0.52;;;;;;;;;;5118662;28;20210;-61
2022/10/25 12:55:49;;;;;;;2.13;0.70;;;;;;;;;;5117950;28;20210;-61
2022/10/25 12:58:33;;;;;;;1.33;0.88;;;;;;;;;;5117639;28;20211;-60
2022/10/25 13:01:04;;;;;;;1.65;0.50;;;;;;;;;;5114983;28;20214;-59
2022/10/25 13:03:41;;;;;;;2.83;0.70;;;;;;;;;;5118793;28;20215;-58
2022/10/25 13:06:16;;;;;;;0.65;0.60;;;;;;;;;;5118111;28;20219;-62
2022/10/25 13:08:44;;;;;;;1.25;0.70;;;;;;;;;;5117454;28;20521;-60
2022/10/25 13:11:10;;;;;;;3.13;0.73;;;;;;;;;;5118125;28;20230;-60
2022/10/25 13:13:37;;;;;;;4.10;0.60;;;;;;;;;;5117608;28;20217;-60
2022/10/25 13:16:05;;;;;;;3.97;0.75;;;;;;;;;;5117617;28;20211;-60
2022/10/25 13:18:42;;;;;;;2.85;0.70;;;;;;;;;;5117373;28;20537;-60
2022/10/25 13:21:09;;;;;;;4.85;0.80;;;;;;;;;;5117648;28;20444;-60
2022/10/25 13:23:58;;;;;;;1.60;0.70;;;;;;;;;;5115592;28;20210;-58
2022/10/25 13:26:27;;;;;;;3.10;0.70;;;;;;;;;;5117981;28;20217;-58
2022/10/25 13:28:54;;;;;;;5.75;0.52;;;;;;;;;;5117480;27;20287;-60
2022/10/25 13:31:44;;;;;;;1.35;0.50;;;;;;;;;;5117810;28;20301;-59
2022/10/25 13:34:29;;;;;;;3.63;0.80;;;;;;;;;;5102674;28;20514;-60
2022/10/25 13:36:56;;;;;;;0.50;0.50;;;;;;;;;;5118383;28;20211;-60
2022/10/25 13:39:24;;;;;;;1.38;0.70;;;;;;;;;;5117528;28;20215;-60
2022/10/25 13:41:53;;;;;;;4.88;0.68;;;;;;;;;;5118197;28;20211;-60
2022/10/25 13:44:20;;;;;;;1.10;0.77;;;;;;;;;;5117389;28;20328;-60
2022/10/25 13:46:47;;;;;;;3.00;0.90;;;;;;;;;;5118946;28;20217;-60
2022/10/25 13:49:31;;;;;;;2.33;0.60;;;;;;;;;;5116798;28;20591;-60
2022/10/25 13:51:58;;;;;;;2.38;0.75;;;;;;;;;;5118159;27;20207;-60
2022/10/25 13:54:25;;;;;;;1.85;0.90;;;;;;;;;;5116703;28;20211;-60
2022/10/25 13:56:53;;;;;;;1.77;0.70;;;;;;;;;;5117587;28;20210;-59
2022/10/25 13:59:36;;;;;;;2.50;0.73;;;;;;;;;;5116766;28;20218;-60
2022/10/25 14:02:17;;;;;;;4.47;1.10;;;;;;;;;;5108703;28;20211;-61
2022/10/25 14:04:43;;;;;;;3.08;1.17;;;;;;;;;;5114973;28;20199;-60
2022/10/25 14:07:28;;;;;;;2.22;0.88;;;;;;;;;;5117955;28;20219;-60
2022/10/25 14:09:55;;;;;;;6.25;0.88;;;;;;;;;;5115737;28;20237;-59
2022/10/25 14:12:23;;;;;;;2.25;1.10;;;;;;;;;;5116765;28;20219;-60
2022/10/25 14:14:56;;;;;;;2.15;0.80;;;;;;;;;;5116825;28;20219;-59
2022/10/25 14:17:25;;;;;;;2.10;0.93;;;;;;;;;;5117073;28;20211;-60
2022/10/25 14:19:53;;;;;;;5.65;0.90;;;;;;;;;;5116561;28;20207;-59
2022/10/25 14:22:22;;;;;;;5.50;1.10;;;;;;;;;;5116303;28;20478;-59
2022/10/25 14:24:50;;;;;;;2.40;0.98;;;;;;;;;;5117095;28;20294;-59
2022/10/25 14:27:28;;;;;;;3.42;1.20;;;;;;;;;;5116774;28;20211;-61
2022/10/25 14:29:54;;;;;;;2.42;1.02;;;;;;;;;;5118169;28;20223;-71
2022/10/25 14:32:21;;;;;;;6.68;1.17;;;;;;;;;;5118998;28;20230;-71
2022/10/25 14:34:49;;;;;;;6.95;1.05;;;;;;;;;;5118965;28;20214;-70
2022/10/25 14:37:15;;;;;;;2.97;0.90;;;;;;;;;;5121816;28;20502;-71
2022/10/25 14:39:51;;;;;;;4.38;0.95;;;;;;;;;;5124337;28;20203;-72
2022/10/25 14:42:17;;;;;;;3.10;1.20;;;;;;;;;;5124241;28;20395;-72
2022/10/25 14:44:46;;;;;;;3.90;1.10;;;;;;;;;;5124332;28;20199;-72
2022/10/25 14:47:26;;;;;;;2.58;1.10;;;;;;;;;;5124172;28;20199;-72
2022/10/25 14:49:52;;;;;;;2.88;0.80;;;;;;;;;;5123789;28;20221;-72